Time;durP1;ratioP1;P1;durP2;ratioP2;P2;SDS_P1;SDS_P2;PMS_P1;PMS_P2;Temp;Humidity;BMP_temperature;BMP_pressure;BME280_temperature;BME280_humidity;BME280_pressure;Samples;Min_cycle;Max_cycle;Signal;HPM_P1;HPM_P2
2021/06/07 00:01:35;;;;;;;2.47;0.70;;;15.10;69.80;;;;;;4694493;30;20061;-69
2021/06/07 00:04:03;;;;;;;3.45;1.55;;;15.10;69.90;;;;;;4685925;30;20049;-69
2021/06/07 00:06:30;;;;;;;2.30;0.70;;;15.00;69.90;;;;;;4698270;30;20060;-69
2021/06/07 00:08:57;;;;;;;1.45;0.70;;;15.00;70.00;;;;;;4682848;30;20054;-69
2021/06/07 00:11:25;;;;;;;3.42;0.60;;;15.00;70.10;;;;;;4682925;30;20104;-69
2021/06/07 00:13:53;;;;;;;1.40;0.63;;;15.00;70.20;;;;;;4680742;30;20530;-69
2021/06/07 00:16:20;;;;;;;3.60;0.70;;;14.90;70.30;;;;;;4702554;30;20085;-69
2021/06/07 00:18:47;;;;;;;2.22;0.70;;;14.90;70.40;;;;;;4697674;30;21823;-69
2021/06/07 00:21:22;;;;;;;2.33;0.75;;;14.80;70.60;;;;;;4702116;30;20081;-69
2021/06/07 00:23:51;;;;;;;1.38;0.82;;;14.80;70.70;;;;;;4699033;30;20053;-68
2021/06/07 00:26:19;;;;;;;1.20;0.80;;;14.80;70.70;;;;;;4701411;30;20038;-70
2021/06/07 00:28:46;;;;;;;2.28;0.73;;;14.80;70.80;;;;;;4695934;30;20115;-69
2021/06/07 00:31:15;;;;;;;2.28;0.88;;;14.80;70.80;;;;;;4698452;30;20096;-70
2021/06/07 00:33:42;;;;;;;2.05;0.70;;;14.80;70.90;;;;;;4701262;30;20115;-69
2021/06/07 00:36:12;;;;;;;5.88;1.00;;;14.80;70.90;;;;;;4701149;30;20077;-69
2021/06/07 00:38:41;;;;;;;1.50;0.57;;;14.80;71.00;;;;;;4699628;30;20423;-69
2021/06/07 00:41:08;;;;;;;1.15;0.60;;;14.70;71.00;;;;;;4685578;30;20155;-69
2021/06/07 00:43:36;;;;;;;1.15;0.60;;;14.70;71.10;;;;;;4700634;30;20065;-69
2021/06/07 00:46:04;;;;;;;1.45;0.70;;;14.60;71.20;;;;;;4695063;30;20136;-69
2021/06/07 00:48:32;;;;;;;1.27;0.68;;;14.60;71.30;;;;;;4700941;30;20053;-69
2021/06/07 00:51:03;;;;;;;2.00;0.52;;;14.50;71.40;;;;;;4701171;30;20132;-69
2021/06/07 00:53:30;;;;;;;1.17;0.60;;;14.50;71.40;;;;;;4699858;30;20058;-69
2021/06/07 00:56:05;;;;;;;2.67;0.93;;;14.50;71.50;;;;;;4699747;30;20085;-69
2021/06/07 00:58:35;;;;;;;1.13;0.52;;;14.50;71.60;;;;;;4700512;30;20495;-69
2021/06/07 01:01:05;;;;;;;1.38;0.50;;;14.40;71.60;;;;;;4700872;30;20119;-69
2021/06/07 01:03:33;;;;;;;1.20;0.50;;;14.40;71.70;;;;;;4685609;30;20149;-69
2021/06/07 01:06:01;;;;;;;2.53;0.80;;;14.40;71.70;;;;;;4688527;30;20085;-69
2021/06/07 01:08:28;;;;;;;3.65;0.77;;;14.30;71.70;;;;;;4657613;30;20072;-69
2021/06/07 01:10:56;;;;;;;1.52;0.70;;;14.40;71.70;;;;;;4680123;30;20083;-69
2021/06/07 01:13:24;;;;;;;1.52;0.55;;;14.30;71.70;;;;;;4700510;30;20376;-69
2021/06/07 01:15:53;;;;;;;1.95;0.57;;;14.30;71.80;;;;;;4700197;30;20789;-69
2021/06/07 01:18:23;;;;;;;2.30;0.70;;;14.30;71.90;;;;;;4700573;30;20512;-69
2021/06/07 01:20:58;;;;;;;1.88;0.55;;;14.30;71.80;;;;;;4694097;30;20541;-69
2021/06/07 01:23:25;;;;;;;1.63;0.60;;;14.20;71.80;;;;;;4692687;30;20073;-69
2021/06/07 01:25:54;;;;;;;1.40;0.55;;;14.20;71.80;;;;;;4700275;30;20103;-69
2021/06/07 01:28:21;;;;;;;2.15;0.60;;;14.20;71.80;;;;;;4699202;30;20046;-69
2021/06/07 01:30:54;;;;;;;1.40;0.77;;;14.20;71.80;;;;;;4700067;30;20506;-69
2021/06/07 01:33:23;;;;;;;1.58;0.50;;;14.20;71.80;;;;;;4700379;30;20363;-69
2021/06/07 01:35:53;;;;;;;1.23;0.55;;;14.10;71.80;;;;;;4699830;30;20290;-69
2021/06/07 01:38:21;;;;;;;1.10;0.55;;;14.10;71.80;;;;;;4699591;30;20064;-70
2021/06/07 01:40:54;;;;;;;1.27;0.40;;;14.10;71.90;;;;;;4698748;30;20132;-69
2021/06/07 01:43:21;;;;;;;2.25;0.52;;;14.10;71.90;;;;;;4698641;30;20099;-69
2021/06/07 01:45:50;;;;;;;1.30;0.50;;;14.10;71.90;;;;;;4698879;30;20049;-69
2021/06/07 01:48:18;;;;;;;1.02;0.57;;;14.10;71.90;;;;;;4698391;30;20076;-69
2021/06/07 01:50:46;;;;;;;1.52;0.60;;;14.00;71.80;;;;;;4696190;30;20065;-69
2021/06/07 01:53:16;;;;;;;1.10;0.50;;;14.00;71.80;;;;;;4682209;30;20053;-69
2021/06/07 01:55:47;;;;;;;1.25;0.38;;;14.00;71.80;;;;;;4690897;30;20057;-69
2021/06/07 01:58:17;;;;;;;1.80;0.40;;;14.00;71.80;;;;;;4689300;30;20057;-69
2021/06/07 02:00:49;;;;;;;1.33;0.40;;;14.00;71.80;;;;;;4684607;30;20613;-69
2021/06/07 02:03:17;;;;;;;1.77;0.60;;;14.00;71.70;;;;;;4690915;30;20060;-69
2021/06/07 02:05:48;;;;;;;0.98;0.50;;;14.00;71.80;;;;;;4698715;30;20046;-69
2021/06/07 02:08:16;;;;;;;1.30;0.45;;;14.00;71.70;;;;;;4698921;30;20045;-69
2021/06/07 02:10:50;;;;;;;0.68;0.43;;;14.00;71.60;;;;;;4699666;30;20054;-69
2021/06/07 02:13:18;;;;;;;1.52;0.38;;;14.00;71.50;;;;;;4698085;30;20580;-69
2021/06/07 02:16:08;;;;;;;0.80;0.50;;;14.00;71.40;;;;;;4699513;30;20132;-69
2021/06/07 02:18:37;;;;;;;0.50;0.30;;;14.00;71.20;;;;;;4696226;30;20057;-69
2021/06/07 02:21:08;;;;;;;1.38;0.40;;;14.00;71.30;;;;;;4693136;30;20388;-69
2021/06/07 02:23:35;;;;;;;0.98;0.40;;;14.00;71.30;;;;;;4673257;30;20077;-69
2021/06/07 02:26:03;;;;;;;1.38;0.40;;;14.00;71.40;;;;;;4696720;30;20053;-69
2021/06/07 02:28:30;;;;;;;2.92;0.45;;;14.00;71.40;;;;;;4697495;30;20042;-69
2021/06/07 02:30:58;;;;;;;1.30;0.40;;;13.90;71.40;;;;;;4699216;30;20144;-69
2021/06/07 02:33:25;;;;;;;1.25;0.50;;;13.90;71.50;;;;;;4698665;30;20049;-69
2021/06/07 02:35:52;;;;;;;0.75;0.40;;;13.90;71.50;;;;;;4699003;30;20049;-69
2021/06/07 02:38:19;;;;;;;0.75;0.30;;;13.90;71.60;;;;;;4685737;30;20045;-69
2021/06/07 02:40:49;;;;;;;0.73;0.35;;;13.90;71.50;;;;;;4677397;30;20072;-69
2021/06/07 02:43:16;;;;;;;1.80;0.40;;;13.80;71.50;;;;;;4695830;30;20057;-69
2021/06/07 02:45:45;;;;;;;0.98;0.50;;;13.80;71.60;;;;;;4695176;30;20103;-69
2021/06/07 02:48:12;;;;;;;1.27;0.60;;;13.80;71.60;;;;;;4684148;30;20045;-69
2021/06/07 02:50:42;;;;;;;0.73;0.40;;;13.80;71.70;;;;;;4679745;30;20100;-69
2021/06/07 02:53:10;;;;;;;1.00;0.43;;;13.70;71.80;;;;;;4699018;30;20045;-69
2021/06/07 02:55:47;;;;;;;1.65;0.80;;;13.70;71.80;;;;;;4665785;30;20041;-69
2021/06/07 02:58:15;;;;;;;1.25;0.50;;;13.70;71.90;;;;;;4681501;30;20050;-69
2021/06/07 03:00:44;;;;;;;1.52;0.50;;;13.70;72.00;;;;;;4682197;30;20125;-69
2021/06/07 03:03:12;;;;;;;0.70;0.43;;;13.60;72.10;;;;;;4691750;30;20128;-69
2021/06/07 03:05:40;;;;;;;2.08;0.40;;;13.60;72.20;;;;;;4696806;30;20041;-69
2021/06/07 03:08:10;;;;;;;0.60;0.30;;;13.60;72.40;;;;;;4696039;30;20399;-69
2021/06/07 03:10:40;;;;;;;2.05;0.52;;;13.60;72.40;;;;;;4682755;30;20141;-69
2021/06/07 03:13:07;;;;;;;0.98;0.38;;;13.60;72.40;;;;;;4682964;30;20050;-69
2021/06/07 03:15:35;;;;;;;1.15;0.70;;;13.60;72.40;;;;;;4680408;30;20112;-69
2021/06/07 03:18:05;;;;;;;0.63;0.40;;;13.60;72.50;;;;;;4695218;30;20137;-69
2021/06/07 03:20:34;;;;;;;1.23;0.50;;;13.60;72.50;;;;;;4696433;30;20038;-69
2021/06/07 03:23:04;;;;;;;0.98;0.50;;;13.60;72.50;;;;;;4696748;30;20077;-69
2021/06/07 03:25:36;;;;;;;1.20;0.70;;;13.60;72.50;;;;;;4683634;30;20124;-69
2021/06/07 03:28:04;;;;;;;1.80;0.50;;;13.60;72.60;;;;;;4697722;30;20073;-69
2021/06/07 03:30:31;;;;;;;1.27;0.50;;;13.60;72.60;;;;;;4696890;30;20045;-69
2021/06/07 03:32:58;;;;;;;0.68;0.47;;;13.60;72.60;;;;;;4682192;30;20113;-69
2021/06/07 03:35:26;;;;;;;1.13;0.50;;;13.60;72.70;;;;;;4682286;30;20226;-68
2021/06/07 03:37:53;;;;;;;1.50;0.50;;;13.50;72.70;;;;;;4697710;30;20181;-69
2021/06/07 03:40:29;;;;;;;0.70;0.40;;;13.60;72.80;;;;;;4668067;30;20118;-68
2021/06/07 03:42:58;;;;;;;0.90;0.30;;;13.60;72.80;;;;;;4682573;30;20061;-69
2021/06/07 03:45:26;;;;;;;2.05;0.45;;;13.60;72.80;;;;;;4674216;30;20056;-69
2021/06/07 03:47:53;;;;;;;0.57;0.30;;;13.50;72.70;;;;;;4682758;30;20101;-69
2021/06/07 03:50:24;;;;;;;1.00;0.55;;;13.60;72.80;;;;;;4700118;30;20107;-68
2021/06/07 03:52:51;;;;;;;1.17;0.47;;;13.60;72.80;;;;;;4700058;30;20111;-68
2021/06/07 03:55:20;;;;;;;2.08;0.40;;;13.60;72.80;;;;;;4701361;30;20061;-69
2021/06/07 03:57:48;;;;;;;1.10;0.43;;;13.60;72.80;;;;;;4686053;30;20112;-69
2021/06/07 04:00:17;;;;;;;2.08;0.45;;;13.60;72.70;;;;;;4700495;30;20648;-69
2021/06/07 04:02:45;;;;;;;0.95;0.40;;;13.60;72.60;;;;;;4684881;30;20115;-69
2021/06/07 04:05:13;;;;;;;1.52;0.40;;;13.70;72.60;;;;;;4683816;30;20121;-69
2021/06/07 04:07:41;;;;;;;0.90;0.50;;;13.70;72.50;;;;;;4700898;30;20046;-68
2021/06/07 04:10:13;;;;;;;0.80;0.40;;;13.80;72.40;;;;;;4701060;30;20128;-69
2021/06/07 04:12:40;;;;;;;0.90;0.30;;;13.90;72.20;;;;;;4686000;30;20194;-69
2021/06/07 04:15:09;;;;;;;1.13;0.30;;;13.90;72.10;;;;;;4699517;30;20458;-68
2021/06/07 04:17:37;;;;;;;1.52;0.50;;;13.90;72.00;;;;;;4671509;30;20049;-69
2021/06/07 04:20:06;;;;;;;1.35;0.40;;;14.00;72.00;;;;;;4685208;30;20049;-69
2021/06/07 04:22:33;;;;;;;0.90;0.50;;;14.00;72.00;;;;;;4701586;30;20445;-69
2021/06/07 04:25:00;;;;;;;1.17;0.47;;;14.00;71.90;;;;;;4685202;30;20045;-71
2021/06/07 04:27:27;;;;;;;0.70;0.45;;;14.00;71.90;;;;;;4699915;30;20054;-69
2021/06/07 04:29:54;;;;;;;1.67;0.85;;;14.00;71.90;;;;;;4669586;30;20123;-69
2021/06/07 04:32:22;;;;;;;2.65;0.40;;;14.00;71.90;;;;;;4701262;30;20151;-69
2021/06/07 04:34:49;;;;;;;1.10;0.40;;;14.00;71.90;;;;;;4684828;30;20069;-69
2021/06/07 04:37:16;;;;;;;1.15;0.60;;;14.00;71.90;;;;;;4699677;30;20057;-69
2021/06/07 04:39:43;;;;;;;1.17;0.32;;;14.00;71.90;;;;;;4699635;30;20049;-70
2021/06/07 04:42:10;;;;;;;0.80;0.40;;;14.00;72.00;;;;;;4661034;30;20133;-69
2021/06/07 04:44:37;;;;;;;2.20;0.38;;;14.00;72.00;;;;;;4682256;30;20046;-69
2021/06/07 04:47:04;;;;;;;1.27;0.50;;;14.00;72.00;;;;;;4681812;30;20120;-69
2021/06/07 04:49:31;;;;;;;1.30;0.50;;;14.00;72.00;;;;;;4682643;30;20124;-69
2021/06/07 04:51:59;;;;;;;0.85;0.50;;;14.00;72.00;;;;;;4664511;30;20054;-68
2021/06/07 04:54:26;;;;;;;0.93;0.30;;;14.00;72.10;;;;;;4681602;30;20088;-69
2021/06/07 04:56:53;;;;;;;1.10;0.30;;;14.00;72.10;;;;;;4681648;30;20085;-69
2021/06/07 04:59:20;;;;;;;0.70;0.50;;;14.00;72.20;;;;;;4667191;30;20058;-69
2021/06/07 05:01:47;;;;;;;0.60;0.30;;;14.00;72.10;;;;;;4680845;30;20054;-69
2021/06/07 05:04:14;;;;;;;0.65;0.45;;;14.00;72.20;;;;;;4678514;30;20444;-69
2021/06/07 05:06:41;;;;;;;1.20;0.30;;;14.10;72.20;;;;;;4680136;30;20219;-69
2021/06/07 05:09:08;;;;;;;4.13;0.60;;;14.10;72.20;;;;;;4683073;30;20050;-69
2021/06/07 05:11:35;;;;;;;1.90;0.52;;;14.20;71.90;;;;;;4681351;30;20121;-69
2021/06/07 05:14:02;;;;;;;1.70;0.60;;;14.30;71.70;;;;;;4681458;30;20062;-69
2021/06/07 05:16:29;;;;;;;1.23;0.65;;;14.30;71.60;;;;;;4681123;30;20049;-69
2021/06/07 05:18:56;;;;;;;0.70;0.40;;;14.40;71.40;;;;;;4667678;30;20416;-69
2021/06/07 05:21:23;;;;;;;1.30;0.30;;;14.50;71.20;;;;;;4693783;30;20069;-69
2021/06/07 05:23:50;;;;;;;0.57;0.30;;;14.60;71.00;;;;;;4680647;30;20038;-68
2021/06/07 05:26:17;;;;;;;0.77;0.40;;;14.70;70.80;;;;;;4681292;30;20144;-69
2021/06/07 05:28:44;;;;;;;0.93;0.32;;;14.80;70.60;;;;;;4682440;30;20058;-69
2021/06/07 05:31:11;;;;;;;0.45;0.30;;;14.90;70.40;;;;;;4674520;30;20050;-69
2021/06/07 05:33:38;;;;;;;3.88;0.52;;;15.00;70.20;;;;;;4682266;30;20050;-69
2021/06/07 05:36:06;;;;;;;0.80;0.35;;;15.10;70.00;;;;;;4681227;30;20464;-69
2021/06/07 05:38:33;;;;;;;0.98;0.45;;;15.20;69.80;;;;;;4680768;30;20056;-68
2021/06/07 05:41:00;;;;;;;1.58;0.20;;;15.30;69.60;;;;;;4681281;30;20132;-69
2021/06/07 05:43:27;;;;;;;0.60;0.30;;;15.40;69.30;;;;;;4695522;30;20065;-69
2021/06/07 05:45:54;;;;;;;0.68;0.22;;;15.50;69.10;;;;;;4700181;30;20440;-69
2021/06/07 05:48:22;;;;;;;0.30;0.20;;;15.60;68.90;;;;;;4680443;30;20503;-69
2021/06/07 05:50:51;;;;;;;0.60;0.20;;;15.70;68.70;;;;;;4699476;30;20049;-69
2021/06/07 05:53:20;;;;;;;0.57;0.30;;;15.80;68.40;;;;;;4699939;30;20054;-69
2021/06/07 05:55:47;;;;;;;1.63;0.30;;;15.90;68.20;;;;;;4682737;30;20061;-69
2021/06/07 05:58:20;;;;;;;0.57;0.30;;;16.00;67.90;;;;;;4701290;30;20505;-69
2021/06/07 06:00:50;;;;;;;0.43;0.20;;;16.10;67.70;;;;;;4697616;30;20057;-69
2021/06/07 06:03:17;;;;;;;1.38;0.30;;;16.20;67.50;;;;;;4681260;30;20108;-69
2021/06/07 06:05:45;;;;;;;0.38;0.20;;;16.20;67.10;;;;;;4697144;30;20529;-69
2021/06/07 06:08:13;;;;;;;0.25;0.20;;;16.30;67.00;;;;;;4682473;30;20864;-69
2021/06/07 06:10:40;;;;;;;0.32;0.20;;;16.30;66.80;;;;;;4696181;30;20050;-69
2021/06/07 06:13:27;;;;;;;0.25;0.10;;;16.50;66.60;;;;;;4694931;30;20046;-69
2021/06/07 06:15:54;;;;;;;0.30;0.20;;;16.50;66.40;;;;;;4699275;30;20058;-69
2021/06/07 06:18:21;;;;;;;1.25;0.47;;;16.60;66.70;;;;;;4669292;30;20049;-69
2021/06/07 06:20:48;;;;;;;0.30;0.20;;;16.70;66.30;;;;;;4681371;30;20576;-69
2021/06/07 06:23:15;;;;;;;0.32;0.15;;;16.70;65.50;;;;;;4694051;30;20049;-69
2021/06/07 06:25:43;;;;;;;1.27;0.20;;;16.80;65.40;;;;;;4664756;30;20073;-69
2021/06/07 06:28:12;;;;;;;0.50;0.22;;;16.90;65.30;;;;;;4694494;30;20140;-69
2021/06/07 06:30:40;;;;;;;1.00;0.40;;;17.00;64.80;;;;;;4682239;30;20054;-69
2021/06/07 06:33:07;;;;;;;0.65;0.20;;;17.10;64.70;;;;;;4680698;30;20050;-69
2021/06/07 06:35:34;;;;;;;0.45;0.20;;;17.10;64.30;;;;;;4696996;30;20123;-69
2021/06/07 06:38:01;;;;;;;1.80;0.30;;;17.20;64.00;;;;;;4699623;30;20111;-70
2021/06/07 06:40:31;;;;;;;0.65;0.25;;;17.20;63.80;;;;;;4697712;30;20113;-70
2021/06/07 06:42:59;;;;;;;0.90;0.20;;;17.30;63.30;;;;;;4680326;30;20101;-70
2021/06/07 06:45:28;;;;;;;1.10;0.30;;;17.30;63.10;;;;;;4698752;30;20414;-71
2021/06/07 06:47:56;;;;;;;1.10;0.30;;;17.40;63.00;;;;;;4714588;30;20041;-71
2021/06/07 06:50:32;;;;;;;0.20;0.20;;;17.40;62.70;;;;;;4699997;30;20494;-69
2021/06/07 06:53:05;;;;;;;1.45;0.20;;;17.60;62.50;;;;;;4683958;30;20053;-70
2021/06/07 06:55:33;;;;;;;;;;;17.60;61.70;;;;;;4677383;30;20526;-69
2021/06/07 06:58:00;;;;;;;0.55;0.28;;;17.60;61.70;;;;;;4682529;30;20021;-71
2021/06/07 07:00:28;;;;;;;0.93;0.20;;;17.60;61.80;;;;;;4665875;30;20132;-71
2021/06/07 07:02:55;;;;;;;0.95;0.40;;;17.80;61.80;;;;;;4689584;30;20080;-69
2021/06/07 07:05:23;;;;;;;0.28;0.20;;;17.90;61.50;;;;;;4692974;30;20153;-69
2021/06/07 07:07:50;;;;;;;1.08;0.20;;;18.00;61.20;;;;;;4696562;30;20054;-70
2021/06/07 07:10:17;;;;;;;0.40;0.25;;;18.10;60.90;;;;;;4674918;30;20049;-68
2021/06/07 07:12:44;;;;;;;0.63;0.20;;;18.20;60.60;;;;;;4695666;30;20146;-70
2021/06/07 07:15:11;;;;;;;1.23;0.20;;;18.30;60.30;;;;;;4682331;30;20057;-70
2021/06/07 07:17:38;;;;;;;0.80;0.30;;;18.40;60.10;;;;;;4665119;30;20058;-70
2021/06/07 07:20:06;;;;;;;1.10;0.40;;;18.50;59.80;;;;;;4683261;30;20396;-69
2021/06/07 07:22:33;;;;;;;3.20;0.40;;;18.60;59.70;;;;;;4690761;30;20515;-69
2021/06/07 07:25:01;;;;;;;0.68;0.30;;;18.70;59.40;;;;;;4671092;30;20042;-69
2021/06/07 07:27:28;;;;;;;1.50;0.30;;;18.70;58.90;;;;;;4668572;30;20511;-69
2021/06/07 07:29:55;;;;;;;0.73;0.20;;;18.80;58.90;;;;;;4685084;30;20081;-69
2021/06/07 07:32:25;;;;;;;0.65;0.28;;;18.80;58.70;;;;;;4682816;30;20411;-70
2021/06/07 07:34:53;;;;;;;0.30;0.20;;;18.90;58.70;;;;;;4694850;30;20401;-69
2021/06/07 07:37:20;;;;;;;0.55;0.20;;;19.00;58.40;;;;;;4673753;30;20156;-69
2021/06/07 07:39:48;;;;;;;1.55;0.20;;;19.20;58.30;;;;;;4683107;30;20466;-70
2021/06/07 07:42:15;;;;;;;0.57;0.20;;;19.30;57.90;;;;;;4698327;30;20065;-70
2021/06/07 07:44:42;;;;;;;1.95;0.30;;;19.40;57.50;;;;;;4682636;30;20100;-69
2021/06/07 07:47:09;;;;;;;0.50;0.25;;;19.40;57.60;;;;;;4668748;30;20058;-69
2021/06/07 07:49:36;;;;;;;0.45;0.10;;;19.50;57.50;;;;;;4683821;30;20073;-70
2021/06/07 07:52:05;;;;;;;0.65;0.25;;;19.50;57.30;;;;;;4682488;30;20491;-70
2021/06/07 07:54:33;;;;;;;1.67;0.28;;;19.60;57.10;;;;;;4698244;30;20057;-71
2021/06/07 07:57:01;;;;;;;0.45;0.20;;;19.60;56.80;;;;;;4698892;30;20049;-69
2021/06/07 07:59:28;;;;;;;1.17;0.28;;;19.70;56.80;;;;;;4682799;30;20127;-70
2021/06/07 08:01:55;;;;;;;0.65;0.20;;;19.70;56.70;;;;;;4707002;30;20049;-70
2021/06/07 08:04:22;;;;;;;1.15;0.43;;;19.90;56.60;;;;;;4669154;30;20484;-76
2021/06/07 08:06:49;;;;;;;1.35;0.20;;;19.90;56.90;;;;;;4671369;30;20136;-76
2021/06/07 08:09:17;;;;;;;0.93;0.30;;;19.90;56.30;;;;;;4698979;30;20104;-70
2021/06/07 08:11:44;;;;;;;1.15;0.25;;;19.90;55.80;;;;;;4686892;30;20061;-70
2021/06/07 08:14:11;;;;;;;2.03;0.20;;;20.00;56.00;;;;;;4681333;30;20173;-70
2021/06/07 08:16:38;;;;;;;0.60;0.40;;;20.00;55.50;;;;;;4685223;30;20060;-69
2021/06/07 08:19:05;;;;;;;1.45;0.30;;;20.10;54.80;;;;;;4674089;30;20057;-69
2021/06/07 08:21:32;;;;;;;1.05;0.40;;;20.20;55.00;;;;;;4687238;30;20050;-70
2021/06/07 08:23:59;;;;;;;0.63;0.20;;;20.20;54.70;;;;;;4694328;30;20049;-70
2021/06/07 08:26:27;;;;;;;0.85;0.30;;;20.30;54.60;;;;;;4697352;30;20506;-70
2021/06/07 08:28:54;;;;;;;1.52;0.35;;;20.30;54.60;;;;;;4697919;30;20045;-69
2021/06/07 08:31:21;;;;;;;1.20;0.35;;;20.40;54.20;;;;;;4682171;30;20077;-70
2021/06/07 08:33:48;;;;;;;1.13;0.40;;;20.40;54.30;;;;;;4682803;30;20045;-70
2021/06/07 08:36:15;;;;;;;2.42;0.57;;;20.40;54.00;;;;;;4699033;30;20568;-70
2021/06/07 08:38:43;;;;;;;1.15;0.50;;;20.50;54.00;;;;;;4684377;30;20073;-70
2021/06/07 08:41:10;;;;;;;0.63;0.30;;;20.60;53.60;;;;;;4700724;30;20053;-70
2021/06/07 08:43:37;;;;;;;0.80;0.30;;;20.60;53.50;;;;;;4684432;30;20112;-69
2021/06/07 08:46:19;;;;;;;0.60;0.30;;;20.70;53.60;;;;;;4687495;30;20499;-70
2021/06/07 08:48:47;;;;;;;0.73;0.30;;;20.80;53.40;;;;;;4670932;30;20724;-77
2021/06/07 08:51:14;;;;;;;0.60;0.20;;;20.90;53.40;;;;;;4687080;30;20162;-76
2021/06/07 08:53:41;;;;;;;1.58;0.38;;;21.00;53.30;;;;;;4686991;30;20056;-77
2021/06/07 08:56:08;;;;;;;0.60;0.30;;;21.10;52.60;;;;;;4702306;30;20057;-77
2021/06/07 08:58:35;;;;;;;1.10;0.38;;;21.10;52.30;;;;;;4682417;30;20057;-76
2021/06/07 09:01:02;;;;;;;1.25;0.30;;;21.20;52.30;;;;;;4686796;30;20054;-76
2021/06/07 09:03:32;;;;;;;2.00;0.40;;;21.30;52.20;;;;;;4686175;30;20126;-76
2021/06/07 09:06:02;;;;;;;0.38;0.20;;;21.30;52.10;;;;;;4704694;30;20048;-75
2021/06/07 09:08:37;;;;;;;0.80;0.40;;;21.40;52.30;;;;;;4695003;30;20550;-76
2021/06/07 09:11:11;;;;;;;1.48;0.40;;;21.40;51.60;;;;;;4686118;30;20096;-77
2021/06/07 09:13:39;;;;;;;1.25;0.20;;;21.40;51.70;;;;;;4701552;30;20510;-76
2021/06/07 09:16:09;;;;;;;1.05;0.40;;;21.40;51.70;;;;;;4689821;30;20128;-76
2021/06/07 09:18:44;;;;;;;0.70;0.30;;;21.50;51.10;;;;;;4701985;30;20042;-76
2021/06/07 09:21:22;;;;;;;1.15;0.20;;;21.60;51.10;;;;;;4699564;30;20050;-76
2021/06/07 09:23:50;;;;;;;1.58;0.30;;;21.70;51.10;;;;;;4697764;30;20898;-77
2021/06/07 09:26:35;;;;;;;1.52;0.30;;;21.70;51.00;;;;;;4700052;30;20072;-76
2021/06/07 09:29:10;;;;;;;0.43;0.20;;;21.80;50.80;;;;;;4702353;30;20108;-75
2021/06/07 09:31:40;;;;;;;0.85;0.30;;;21.90;50.80;;;;;;4685291;30;20053;-76
2021/06/07 09:34:09;;;;;;;0.60;0.15;;;22.10;50.70;;;;;;4702569;30;20120;-77
2021/06/07 09:36:43;;;;;;;1.65;0.30;;;22.20;50.70;;;;;;4685552;30;20672;-77
2021/06/07 09:39:15;;;;;;;1.08;0.20;;;22.30;50.30;;;;;;4685002;30;20517;-77
2021/06/07 09:41:45;;;;;;;0.35;0.20;;;22.40;50.20;;;;;;4682359;30;20057;-77
2021/06/07 09:44:24;;;;;;;1.90;0.30;;;22.50;50.20;;;;;;4690484;30;20415;-75
2021/06/07 09:46:53;;;;;;;2.15;0.28;;;22.50;49.60;;;;;;4687278;30;20049;-74
2021/06/07 09:49:22;;;;;;;1.15;0.30;;;22.50;50.00;;;;;;4692052;30;20411;-75
2021/06/07 09:51:58;;;;;;;0.50;0.20;;;22.60;49.60;;;;;;4703304;30;20045;-74
2021/06/07 09:54:27;;;;;;;0.65;0.25;;;22.70;49.70;;;;;;4700845;30;20049;-77
2021/06/07 09:57:01;;;;;;;0.68;0.30;;;22.70;49.30;;;;;;4696463;30;20153;-77
2021/06/07 09:59:35;;;;;;;0.20;0.13;;;22.70;49.10;;;;;;4700611;30;20049;-77
2021/06/07 10:02:15;;;;;;;0.68;0.30;;;22.80;49.10;;;;;;4700795;30;20049;-78
2021/06/07 10:04:58;;;;;;;3.22;0.22;;;22.80;48.70;;;;;;4689800;30;20050;-78
2021/06/07 10:07:26;;;;;;;1.13;0.30;;;22.80;48.80;;;;;;4684731;30;20053;-78
2021/06/07 10:10:13;;;;;;;0.30;0.20;;;22.80;48.90;;;;;;4697634;30;20107;-79
2021/06/07 10:12:43;;;;;;;0.63;0.28;;;22.80;48.40;;;;;;4700218;30;20046;-77
2021/06/07 10:15:33;;;;;;;0.25;0.20;;;22.90;48.50;;;;;;4684936;30;20080;-75
2021/06/07 10:18:06;;;;;;;1.02;0.30;;;23.00;48.00;;;;;;4684949;30;20048;-75
2021/06/07 10:23:34;;;;;;;1.05;0.30;;;22.90;47.30;;;;;;4661165;30;20064;-76
2021/06/07 10:26:05;;;;;;;0.68;0.30;;;22.90;46.80;;;;;;4693237;30;20516;-76
2021/06/07 10:28:38;;;;;;;0.63;0.25;;;22.90;46.80;;;;;;4697827;30;20049;-76
2021/06/07 10:31:15;;;;;;;0.80;0.40;;;23.00;47.10;;;;;;4698765;30;20540;-75
2021/06/07 10:33:54;;;;;;;1.05;0.30;;;23.20;47.00;;;;;;4700464;30;20046;-75
2021/06/07 10:36:21;;;;;;;1.30;0.30;;;23.10;46.50;;;;;;4699983;30;20502;-74
2021/06/07 10:38:49;;;;;;;0.70;0.30;;;23.20;46.90;;;;;;4699925;30;20167;-75
2021/06/07 10:41:25;;;;;;;0.52;0.20;;;23.30;46.90;;;;;;4696240;30;20041;-76
2021/06/07 10:43:57;;;;;;;0.88;0.32;;;23.50;46.80;;;;;;4694566;30;20076;-76
2021/06/07 10:46:33;;;;;;;0.60;0.30;;;23.50;46.60;;;;;;4699964;30;20522;-76
2021/06/07 10:49:03;;;;;;;1.15;0.38;;;23.50;46.60;;;;;;4693726;30;20077;-76
2021/06/07 10:51:34;;;;;;;0.82;0.20;;;23.50;46.80;;;;;;4706324;30;20484;-76
2021/06/07 10:54:30;;;;;;;1.30;0.22;;;23.50;47.00;;;;;;4701245;30;20100;-76
2021/06/07 10:57:25;;;;;;;0.77;0.32;;;23.60;47.00;;;;;;4691877;30;20061;-76
2021/06/07 10:59:55;;;;;;;0.93;0.30;;;23.60;46.90;;;;;;4696362;30;20131;-76
2021/06/07 11:02:24;;;;;;;0.73;0.20;;;23.60;47.60;;;;;;4692291;30;20491;-77
2021/06/07 11:05:13;;;;;;;1.00;0.30;;;23.70;46.50;;;;;;4672369;30;20053;-76
2021/06/07 11:07:46;;;;;;;1.00;0.40;;;23.80;46.20;;;;;;4698006;30;20492;-75
2021/06/07 11:10:29;;;;;;;2.83;0.50;;;23.90;46.30;;;;;;4694235;30;20403;-75
2021/06/07 11:12:58;;;;;;;;;;;23.90;46.20;;;;;;4694162;30;20049;-76
2021/06/07 11:15:29;;;;;;;0.82;0.30;;;23.90;46.40;;;;;;4695026;30;20356;-75
2021/06/07 11:18:39;;;;;;;1.13;0.43;;;23.80;46.30;;;;;;4697420;30;20610;-77
2021/06/07 11:21:07;;;;;;;0.60;0.30;;;23.90;46.30;;;;;;4698382;30;20137;-77
2021/06/07 11:23:40;;;;;;;0.38;0.30;;;23.90;46.00;;;;;;4699420;30;20502;-78
2021/06/07 11:26:37;;;;;;;0.55;0.20;;;24.00;46.00;;;;;;4684124;30;20049;-77
2021/06/07 11:29:07;;;;;;;1.67;0.35;;;24.10;45.90;;;;;;4684016;30;20061;-77
2021/06/07 11:31:33;;;;;;;0.77;0.30;;;24.20;45.80;;;;;;4697899;30;20103;-77
2021/06/07 11:34:03;;;;;;;0.93;0.47;;;24.30;45.50;;;;;;4690178;30;20443;-77
2021/06/07 11:37:01;;;;;;;0.50;0.30;;;24.30;45.20;;;;;;4684846;30;20483;-77
2021/06/07 11:39:50;;;;;;;0.82;0.30;;;24.30;45.00;;;;;;4695258;30;20140;-77
2021/06/07 11:42:20;;;;;;;1.60;0.30;;;24.40;45.10;;;;;;4675614;30;20073;-79
2021/06/07 11:45:09;;;;;;;0.68;0.35;;;24.30;45.00;;;;;;4696604;30;20068;-78
2021/06/07 11:47:36;;;;;;;0.50;0.20;;;24.40;44.30;;;;;;4706915;30;20045;-78
2021/06/07 11:50:18;;;;;;;1.33;0.38;;;24.40;44.00;;;;;;4672748;30;20120;-78
2021/06/07 11:52:55;;;;;;;0.85;0.25;;;24.70;43.50;;;;;;4689194;30;20041;-78
2021/06/07 11:55:32;;;;;;;0.30;0.20;;;25.00;42.80;;;;;;4695096;30;20042;-78
2021/06/07 11:58:24;;;;;;;0.40;0.20;;;25.30;42.40;;;;;;4683494;30;20156;-79
2021/06/07 12:00:56;;;;;;;1.25;0.30;;;25.60;42.00;;;;;;4697571;30;20049;-79
2021/06/07 12:03:31;;;;;;;0.90;0.20;;;26.00;41.80;;;;;;4700397;30;20046;-77
2021/06/07 12:05:58;;;;;;;0.40;0.20;;;26.20;41.40;;;;;;4700615;30;20045;-78
2021/06/07 12:08:26;;;;;;;0.65;0.28;;;26.40;41.40;;;;;;4686756;30;20125;-78
2021/06/07 12:11:00;;;;;;;0.73;0.20;;;26.90;41.20;;;;;;4686832;30;20046;-76
2021/06/07 12:13:40;;;;;;;1.73;0.30;;;27.20;40.80;;;;;;4703447;30;20050;-77
2021/06/07 12:16:12;;;;;;;0.57;0.32;;;27.50;40.80;;;;;;4703939;30;20546;-78
2021/06/07 12:18:48;;;;;;;0.88;0.20;;;27.50;40.20;;;;;;4690965;30;20045;-77
2021/06/07 12:21:30;;;;;;;1.05;0.30;;;27.90;40.20;;;;;;4687613;30;20099;-77
2021/06/07 12:24:05;;;;;;;1.15;0.30;;;28.30;40.00;;;;;;4695327;30;20553;-78
2021/06/07 12:29:34;;;;;;;1.45;0.38;;;28.70;39.40;;;;;;4703085;30;20052;-77
2021/06/07 12:32:20;;;;;;;0.28;0.10;;;28.90;39.00;;;;;;4686766;30;20057;-80
2021/06/07 12:34:56;;;;;;;0.70;0.45;;;29.00;38.20;;;;;;4688308;30;20893;-78
2021/06/07 12:37:33;;;;;;;0.88;0.10;;;29.20;38.40;;;;;;4693813;30;20056;-77
2021/06/07 12:40:11;;;;;;;0.28;0.20;;;29.40;37.50;;;;;;4700493;30;20462;-78
2021/06/07 12:42:38;;;;;;;0.30;0.20;;;29.70;37.10;;;;;;4693475;30;20061;-78
2021/06/07 12:45:08;;;;;;;0.43;0.20;;;29.70;36.90;;;;;;4683175;30;20186;-78
2021/06/07 12:47:35;;;;;;;0.90;0.20;;;29.70;36.70;;;;;;4701149;30;20049;-77
2021/06/07 12:50:26;;;;;;;0.32;0.20;;;29.90;36.90;;;;;;4682605;30;20099;-77
2021/06/07 12:52:56;;;;;;;0.43;0.20;;;30.20;36.80;;;;;;4697755;30;20053;-77
2021/06/07 12:55:25;;;;;;;0.47;0.20;;;30.40;36.30;;;;;;4693639;30;20062;-76
2021/06/07 12:57:53;;;;;;;1.13;0.20;;;30.50;36.20;;;;;;4686001;30;20049;-78
2021/06/07 13:00:29;;;;;;;0.82;0.30;;;30.70;36.20;;;;;;4689586;30;20049;-76
2021/06/07 13:02:59;;;;;;;0.35;0.30;;;30.90;36.20;;;;;;4690109;30;20056;-77
2021/06/07 13:05:33;;;;;;;0.40;0.20;;;31.10;36.10;;;;;;4699700;30;20041;-76
2021/06/07 13:08:17;;;;;;;0.85;0.20;;;31.30;36.20;;;;;;4699157;30;20054;-76
2021/06/07 13:10:47;;;;;;;0.20;0.13;;;31.70;35.90;;;;;;4694098;30;20049;-77